sensor_id;sensor_type;location;lat;lon;timestamp;P1;durP1;ratioP1;P2;durP2;ratioP2
67715;SDS011;54508;43.238;25.306;2023-04-24T00:01:47;5.07;;;3.80;;
67715;SDS011;54508;43.238;25.306;2023-04-24T00:04:12;4.97;;;3.92;;
67715;SDS011;54508;43.238;25.306;2023-04-24T00:06:41;4.75;;;4.10;;
67715;SDS011;54508;43.238;25.306;2023-04-24T00:09:08;4.68;;;3.95;;
67715;SDS011;54508;43.238;25.306;2023-04-24T00:11:36;4.38;;;3.80;;
67715;SDS011;54508;43.238;25.306;2023-04-24T00:14:02;3.80;;;3.50;;
67715;SDS011;54508;43.238;25.306;2023-04-24T00:16:27;4.63;;;3.63;;
67715;SDS011;54508;43.238;25.306;2023-04-24T00:18:53;5.17;;;3.80;;
67715;SDS011;54508;43.238;25.306;2023-04-24T00:21:19;3.78;;;3.20;;
67715;SDS011;54508;43.238;25.306;2023-04-24T00:23:45;4.13;;;3.80;;
67715;SDS011;54508;43.238;25.306;2023-04-24T00:26:11;3.77;;;3.17;;
67715;SDS011;54508;43.238;25.306;2023-04-24T00:28:36;5.30;;;3.73;;
67715;SDS011;54508;43.238;25.306;2023-04-24T00:31:01;4.93;;;3.63;;
67715;SDS011;54508;43.238;25.306;2023-04-24T00:33:27;4.10;;;3.47;;
67715;SDS011;54508;43.238;25.306;2023-04-24T00:35:52;4.37;;;3.63;;
67715;SDS011;54508;43.238;25.306;2023-04-24T00:38:18;4.40;;;3.67;;
67715;SDS011;54508;43.238;25.306;2023-04-24T00:40:44;4.65;;;3.75;;
67715;SDS011;54508;43.238;25.306;2023-04-24T00:43:09;5.00;;;3.88;;
67715;SDS011;54508;43.238;25.306;2023-04-24T00:45:35;4.20;;;3.80;;
67715;SDS011;54508;43.238;25.306;2023-04-24T00:48:01;4.37;;;3.87;;
67715;SDS011;54508;43.238;25.306;2023-04-24T00:50:27;4.05;;;3.65;;
67715;SDS011;54508;43.238;25.306;2023-04-24T00:52:53;4.43;;;4.03;;
67715;SDS011;54508;43.238;25.306;2023-04-24T00:55:19;4.55;;;3.97;;
67715;SDS011;54508;43.238;25.306;2023-04-24T00:57:45;7.50;;;4.25;;
67715;SDS011;54508;43.238;25.306;2023-04-24T01:00:11;5.53;;;3.63;;
67715;SDS011;54508;43.238;25.306;2023-04-24T01:02:38;6.43;;;4.40;;
67715;SDS011;54508;43.238;25.306;2023-04-24T01:05:06;4.80;;;4.30;;
67715;SDS011;54508;43.238;25.306;2023-04-24T01:07:33;4.28;;;3.80;;
67715;SDS011;54508;43.238;25.306;2023-04-24T01:09:58;4.60;;;3.80;;
67715;SDS011;54508;43.238;25.306;2023-04-24T01:12:24;4.47;;;3.90;;
67715;SDS011;54508;43.238;25.306;2023-04-24T01:14:49;4.27;;;3.77;;
67715;SDS011;54508;43.238;25.306;2023-04-24T01:17:16;4.10;;;3.50;;
67715;SDS011;54508;43.238;25.306;2023-04-24T01:19:41;4.30;;;3.50;;
67715;SDS011;54508;43.238;25.306;2023-04-24T01:22:13;6.47;;;3.97;;
67715;SDS011;54508;43.238;25.306;2023-04-24T01:24:39;4.72;;;3.50;;
67715;SDS011;54508;43.238;25.306;2023-04-24T01:27:05;5.07;;;4.10;;
67715;SDS011;54508;43.238;25.306;2023-04-24T01:29:33;4.27;;;3.40;;
67715;SDS011;54508;43.238;25.306;2023-04-24T01:31:59;3.58;;;3.28;;
67715;SDS011;54508;43.238;25.306;2023-04-24T01:34:25;4.47;;;4.00;;
67715;SDS011;54508;43.238;25.306;2023-04-24T01:36:50;4.00;;;3.30;;
67715;SDS011;54508;43.238;25.306;2023-04-24T01:39:16;5.10;;;3.72;;
67715;SDS011;54508;43.238;25.306;2023-04-24T01:41:41;5.20;;;4.00;;
67715;SDS011;54508;43.238;25.306;2023-04-24T01:44:07;4.07;;;3.55;;
67715;SDS011;54508;43.238;25.306;2023-04-24T01:46:33;5.53;;;3.73;;
67715;SDS011;54508;43.238;25.306;2023-04-24T01:48:59;4.22;;;3.70;;
67715;SDS011;54508;43.238;25.306;2023-04-24T01:51:25;4.23;;;3.80;;
67715;SDS011;54508;43.238;25.306;2023-04-24T01:53:50;4.87;;;3.67;;
67715;SDS011;54508;43.238;25.306;2023-04-24T01:56:16;3.80;;;3.40;;
67715;SDS011;54508;43.238;25.306;2023-04-24T01:58:41;5.80;;;4.17;;
67715;SDS011;54508;43.238;25.306;2023-04-24T02:01:08;4.28;;;3.72;;
67715;SDS011;54508;43.238;25.306;2023-04-24T02:03:35;5.10;;;3.70;;
67715;SDS011;54508;43.238;25.306;2023-04-24T02:06:00;4.67;;;3.47;;
67715;SDS011;54508;43.238;25.306;2023-04-24T02:08:26;3.70;;;3.40;;
67715;SDS011;54508;43.238;25.306;2023-04-24T02:10:51;4.53;;;3.40;;
67715;SDS011;54508;43.238;25.306;2023-04-24T02:13:17;4.10;;;3.70;;
67715;SDS011;54508;43.238;25.306;2023-04-24T02:15:42;4.50;;;3.60;;
67715;SDS011;54508;43.238;25.306;2023-04-24T02:18:08;3.70;;;3.23;;
67715;SDS011;54508;43.238;25.306;2023-04-24T02:20:33;4.43;;;3.90;;
67715;SDS011;54508;43.238;25.306;2023-04-24T02:23:00;5.20;;;4.40;;
67715;SDS011;54508;43.238;25.306;2023-04-24T02:25:26;5.20;;;4.55;;
67715;SDS011;54508;43.238;25.306;2023-04-24T02:27:51;4.60;;;4.17;;
67715;SDS011;54508;43.238;25.306;2023-04-24T02:30:17;6.00;;;4.47;;
67715;SDS011;54508;43.238;25.306;2023-04-24T02:32:42;5.63;;;4.30;;
67715;SDS011;54508;43.238;25.306;2023-04-24T02:35:08;5.95;;;4.40;;
67715;SDS011;54508;43.238;25.306;2023-04-24T02:37:33;5.30;;;4.40;;
67715;SDS011;54508;43.238;25.306;2023-04-24T02:39:59;5.80;;;4.30;;
67715;SDS011;54508;43.238;25.306;2023-04-24T02:42:24;8.13;;;3.92;;
67715;SDS011;54508;43.238;25.306;2023-04-24T02:44:50;6.27;;;4.50;;
67715;SDS011;54508;43.238;25.306;2023-04-24T02:47:16;6.40;;;4.15;;
67715;SDS011;54508;43.238;25.306;2023-04-24T02:49:41;4.33;;;3.83;;
67715;SDS011;54508;43.238;25.306;2023-04-24T02:52:07;5.23;;;4.30;;
67715;SDS011;54508;43.238;25.306;2023-04-24T02:54:32;6.13;;;4.93;;
67715;SDS011;54508;43.238;25.306;2023-04-24T02:56:58;5.18;;;4.65;;
67715;SDS011;54508;43.238;25.306;2023-04-24T02:59:23;5.90;;;4.40;;
67715;SDS011;54508;43.238;25.306;2023-04-24T03:01:49;5.33;;;4.20;;
67715;SDS011;54508;43.238;25.306;2023-04-24T03:04:14;6.17;;;4.40;;
67715;SDS011;54508;43.238;25.306;2023-04-24T03:06:40;6.25;;;4.60;;
67715;SDS011;54508;43.238;25.306;2023-04-24T03:09:06;5.80;;;4.40;;
67715;SDS011;54508;43.238;25.306;2023-04-24T03:11:31;5.00;;;4.10;;
67715;SDS011;54508;43.238;25.306;2023-04-24T03:13:56;4.70;;;4.10;;
67715;SDS011;54508;43.238;25.306;2023-04-24T03:16:22;4.43;;;4.03;;
67715;SDS011;54508;43.238;25.306;2023-04-24T03:18:47;4.73;;;4.23;;
67715;SDS011;54508;43.238;25.306;2023-04-24T03:21:13;5.88;;;4.28;;
67715;SDS011;54508;43.238;25.306;2023-04-24T03:23:38;5.05;;;3.90;;
67715;SDS011;54508;43.238;25.306;2023-04-24T03:26:04;5.73;;;4.17;;
67715;SDS011;54508;43.238;25.306;2023-04-24T03:28:29;5.10;;;4.40;;
67715;SDS011;54508;43.238;25.306;2023-04-24T03:30:55;4.73;;;4.30;;
67715;SDS011;54508;43.238;25.306;2023-04-24T03:33:20;4.40;;;4.00;;
67715;SDS011;54508;43.238;25.306;2023-04-24T03:35:46;6.13;;;4.43;;
67715;SDS011;54508;43.238;25.306;2023-04-24T03:38:11;4.80;;;4.10;;
67715;SDS011;54508;43.238;25.306;2023-04-24T03:40:36;5.67;;;4.33;;
67715;SDS011;54508;43.238;25.306;2023-04-24T03:43:02;4.20;;;3.80;;
67715;SDS011;54508;43.238;25.306;2023-04-24T03:45:27;6.03;;;4.17;;
67715;SDS011;54508;43.238;25.306;2023-04-24T03:47:53;5.57;;;4.50;;
67715;SDS011;54508;43.238;25.306;2023-04-24T03:50:18;5.70;;;4.40;;
67715;SDS011;54508;43.238;25.306;2023-04-24T03:52:44;4.60;;;4.20;;
67715;SDS011;54508;43.238;25.306;2023-04-24T03:55:09;5.55;;;4.05;;
67715;SDS011;54508;43.238;25.306;2023-04-24T03:57:37;4.28;;;3.70;;
67715;SDS011;54508;43.238;25.306;2023-04-24T04:00:03;5.28;;;4.68;;
67715;SDS011;54508;43.238;25.306;2023-04-24T04:02:30;7.40;;;4.68;;
67715;SDS011;54508;43.238;25.306;2023-04-24T04:04:55;4.43;;;4.03;;
67715;SDS011;54508;43.238;25.306;2023-04-24T04:07:21;6.83;;;4.40;;
67715;SDS011;54508;43.238;25.306;2023-04-24T04:09:46;5.68;;;4.35;;
67715;SDS011;54508;43.238;25.306;2023-04-24T04:12:11;5.10;;;4.30;;
67715;SDS011;54508;43.238;25.306;2023-04-24T04:14:37;5.55;;;4.50;;
67715;SDS011;54508;43.238;25.306;2023-04-24T04:17:03;5.40;;;4.47;;
67715;SDS011;54508;43.238;25.306;2023-04-24T04:19:28;7.83;;;4.77;;
67715;SDS011;54508;43.238;25.306;2023-04-24T04:21:54;5.57;;;4.37;;
67715;SDS011;54508;43.238;25.306;2023-04-24T04:24:21;7.20;;;5.25;;
67715;SDS011;54508;43.238;25.306;2023-04-24T04:26:47;6.55;;;4.72;;
67715;SDS011;54508;43.238;25.306;2023-04-24T04:29:16;6.68;;;4.55;;
67715;SDS011;54508;43.238;25.306;2023-04-24T04:31:43;5.25;;;4.70;;
67715;SDS011;54508;43.238;25.306;2023-04-24T04:34:09;4.95;;;4.18;;
67715;SDS011;54508;43.238;25.306;2023-04-24T04:36:34;6.87;;;4.93;;
67715;SDS011;54508;43.238;25.306;2023-04-24T04:39:02;6.35;;;4.72;;
67715;SDS011;54508;43.238;25.306;2023-04-24T04:41:28;7.45;;;4.63;;
67715;SDS011;54508;43.238;25.306;2023-04-24T04:43:53;6.37;;;4.77;;
67715;SDS011;54508;43.238;25.306;2023-04-24T04:46:19;6.93;;;4.80;;
67715;SDS011;54508;43.238;25.306;2023-04-24T04:48:50;6.47;;;4.78;;
67715;SDS011;54508;43.238;25.306;2023-04-24T04:51:18;8.80;;;4.50;;
67715;SDS011;54508;43.238;25.306;2023-04-24T04:53:43;6.75;;;4.40;;
67715;SDS011;54508;43.238;25.306;2023-04-24T04:56:09;7.88;;;4.60;;
67715;SDS011;54508;43.238;25.306;2023-04-24T04:58:35;8.53;;;5.23;;
67715;SDS011;54508;43.238;25.306;2023-04-24T05:01:00;7.22;;;4.38;;
67715;SDS011;54508;43.238;25.306;2023-04-24T05:03:26;9.67;;;4.73;;
67715;SDS011;54508;43.238;25.306;2023-04-24T05:05:51;11.63;;;5.77;;
67715;SDS011;54508;43.238;25.306;2023-04-24T05:08:17;16.27;;;5.45;;
67715;SDS011;54508;43.238;25.306;2023-04-24T05:10:42;16.65;;;5.88;;
67715;SDS011;54508;43.238;25.306;2023-04-24T05:13:08;17.43;;;5.87;;
67715;SDS011;54508;43.238;25.306;2023-04-24T05:15:33;12.13;;;5.50;;
67715;SDS011;54508;43.238;25.306;2023-04-24T05:17:59;12.77;;;5.47;;
67715;SDS011;54508;43.238;25.306;2023-04-24T05:20:25;15.97;;;6.57;;
67715;SDS011;54508;43.238;25.306;2023-04-24T05:22:50;20.02;;;6.00;;
67715;SDS011;54508;43.238;25.306;2023-04-24T05:25:15;10.63;;;5.40;;
67715;SDS011;54508;43.238;25.306;2023-04-24T05:27:41;10.90;;;5.70;;
67715;SDS011;54508;43.238;25.306;2023-04-24T05:30:07;15.30;;;5.60;;
67715;SDS011;54508;43.238;25.306;2023-04-24T05:32:32;16.50;;;5.80;;
67715;SDS011;54508;43.238;25.306;2023-04-24T05:34:58;8.93;;;5.57;;
67715;SDS011;54508;43.238;25.306;2023-04-24T05:37:23;9.90;;;5.20;;
67715;SDS011;54508;43.238;25.306;2023-04-24T05:39:49;17.45;;;6.35;;
67715;SDS011;54508;43.238;25.306;2023-04-24T05:42:14;11.73;;;5.67;;
67715;SDS011;54508;43.238;25.306;2023-04-24T05:44:40;11.13;;;5.10;;
67715;SDS011;54508;43.238;25.306;2023-04-24T05:47:05;15.63;;;5.97;;
67715;SDS011;54508;43.238;25.306;2023-04-24T05:49:31;15.82;;;5.60;;
67715;SDS011;54508;43.238;25.306;2023-04-24T05:51:56;15.67;;;6.30;;
67715;SDS011;54508;43.238;25.306;2023-04-24T05:54:22;15.30;;;6.88;;
67715;SDS011;54508;43.238;25.306;2023-04-24T05:56:48;12.17;;;6.33;;
67715;SDS011;54508;43.238;25.306;2023-04-24T05:59:14;9.65;;;5.70;;
67715;SDS011;54508;43.238;25.306;2023-04-24T06:01:40;11.63;;;5.30;;
67715;SDS011;54508;43.238;25.306;2023-04-24T06:04:05;10.13;;;5.23;;
67715;SDS011;54508;43.238;25.306;2023-04-24T06:06:31;24.35;;;5.40;;
67715;SDS011;54508;43.238;25.306;2023-04-24T06:08:57;9.98;;;5.03;;
67715;SDS011;54508;43.238;25.306;2023-04-24T06:11:23;11.60;;;5.63;;
67715;SDS011;54508;43.238;25.306;2023-04-24T06:13:49;9.77;;;5.35;;
67715;SDS011;54508;43.238;25.306;2023-04-24T06:16:15;12.60;;;5.47;;
67715;SDS011;54508;43.238;25.306;2023-04-24T06:18:40;15.90;;;6.80;;
67715;SDS011;54508;43.238;25.306;2023-04-24T06:21:06;27.67;;;16.43;;
67715;SDS011;54508;43.238;25.306;2023-04-24T06:23:31;38.90;;;22.30;;
67715;SDS011;54508;43.238;25.306;2023-04-24T06:25:58;18.13;;;10.85;;
67715;SDS011;54508;43.238;25.306;2023-04-24T06:28:24;14.30;;;7.00;;
67715;SDS011;54508;43.238;25.306;2023-04-24T06:30:49;11.07;;;7.13;;
67715;SDS011;54508;43.238;25.306;2023-04-24T06:33:15;18.92;;;6.95;;
67715;SDS011;54508;43.238;25.306;2023-04-24T06:35:41;13.20;;;5.57;;
67715;SDS011;54508;43.238;25.306;2023-04-24T06:38:06;8.75;;;5.40;;
67715;SDS011;54508;43.238;25.306;2023-04-24T06:40:32;9.60;;;5.22;;
67715;SDS011;54508;43.238;25.306;2023-04-24T06:42:58;18.67;;;8.43;;
67715;SDS011;54508;43.238;25.306;2023-04-24T06:45:25;13.98;;;5.88;;
67715;SDS011;54508;43.238;25.306;2023-04-24T06:47:50;10.23;;;5.45;;
67715;SDS011;54508;43.238;25.306;2023-04-24T06:50:16;11.20;;;5.13;;
67715;SDS011;54508;43.238;25.306;2023-04-24T06:52:41;16.83;;;5.78;;
67715;SDS011;54508;43.238;25.306;2023-04-24T06:55:07;12.00;;;5.97;;
67715;SDS011;54508;43.238;25.306;2023-04-24T06:57:33;13.23;;;6.03;;
67715;SDS011;54508;43.238;25.306;2023-04-24T06:59:58;10.73;;;6.30;;
67715;SDS011;54508;43.238;25.306;2023-04-24T07:02:24;13.90;;;5.30;;
67715;SDS011;54508;43.238;25.306;2023-04-24T07:04:50;15.68;;;5.75;;
67715;SDS011;54508;43.238;25.306;2023-04-24T07:07:15;18.20;;;6.07;;
67715;SDS011;54508;43.238;25.306;2023-04-24T07:09:41;12.32;;;5.70;;
67715;SDS011;54508;43.238;25.306;2023-04-24T07:12:10;8.48;;;5.57;;
67715;SDS011;54508;43.238;25.306;2023-04-24T07:14:36;20.95;;;5.80;;
67715;SDS011;54508;43.238;25.306;2023-04-24T07:17:05;17.10;;;5.93;;
67715;SDS011;54508;43.238;25.306;2023-04-24T07:19:37;12.48;;;5.97;;
67715;SDS011;54508;43.238;25.306;2023-04-24T07:22:02;9.50;;;5.53;;
67715;SDS011;54508;43.238;25.306;2023-04-24T07:24:28;11.13;;;5.43;;
67715;SDS011;54508;43.238;25.306;2023-04-24T07:27:05;8.75;;;5.53;;
67715;SDS011;54508;43.238;25.306;2023-04-24T07:29:33;20.83;;;5.97;;
67715;SDS011;54508;43.238;25.306;2023-04-24T07:32:01;16.20;;;6.00;;
67715;SDS011;54508;43.238;25.306;2023-04-24T07:34:26;12.20;;;5.57;;
67715;SDS011;54508;43.238;25.306;2023-04-24T07:36:52;10.68;;;5.40;;
67715;SDS011;54508;43.238;25.306;2023-04-24T07:39:18;5.80;;;5.17;;
67715;SDS011;54508;43.238;25.306;2023-04-24T07:41:43;6.60;;;5.47;;
67715;SDS011;54508;43.238;25.306;2023-04-24T07:44:08;11.15;;;5.45;;
67715;SDS011;54508;43.238;25.306;2023-04-24T07:46:34;16.70;;;5.33;;
67715;SDS011;54508;43.238;25.306;2023-04-24T07:49:00;9.70;;;5.30;;
67715;SDS011;54508;43.238;25.306;2023-04-24T07:51:26;10.10;;;5.63;;
67715;SDS011;54508;43.238;25.306;2023-04-24T07:53:52;8.93;;;5.53;;
67715;SDS011;54508;43.238;25.306;2023-04-24T07:56:20;10.90;;;4.75;;
67715;SDS011;54508;43.238;25.306;2023-04-24T07:58:45;12.25;;;5.55;;
67715;SDS011;54508;43.238;25.306;2023-04-24T08:01:11;8.83;;;5.50;;
67715;SDS011;54508;43.238;25.306;2023-04-24T08:03:36;13.67;;;5.17;;
67715;SDS011;54508;43.238;25.306;2023-04-24T08:06:02;13.02;;;5.13;;
67715;SDS011;54508;43.238;25.306;2023-04-24T08:08:28;12.73;;;5.00;;
67715;SDS011;54508;43.238;25.306;2023-04-24T08:10:53;10.30;;;4.93;;
67715;SDS011;54508;43.238;25.306;2023-04-24T08:13:19;8.43;;;5.30;;
67715;SDS011;54508;43.238;25.306;2023-04-24T08:15:45;7.68;;;5.82;;
67715;SDS011;54508;43.238;25.306;2023-04-24T08:18:11;7.33;;;5.07;;
67715;SDS011;54508;43.238;25.306;2023-04-24T08:20:38;11.88;;;5.50;;
67715;SDS011;54508;43.238;25.306;2023-04-24T08:23:04;17.75;;;5.90;;
67715;SDS011;54508;43.238;25.306;2023-04-24T08:25:29;12.03;;;6.77;;
67715;SDS011;54508;43.238;25.306;2023-04-24T08:27:55;14.87;;;6.30;;
67715;SDS011;54508;43.238;25.306;2023-04-24T08:30:20;15.40;;;5.90;;
67715;SDS011;54508;43.238;25.306;2023-04-24T08:32:46;14.83;;;5.60;;
67715;SDS011;54508;43.238;25.306;2023-04-24T08:35:12;9.60;;;5.22;;
67715;SDS011;54508;43.238;25.306;2023-04-24T08:37:38;10.53;;;5.77;;
67715;SDS011;54508;43.238;25.306;2023-04-24T08:40:05;15.32;;;5.88;;
67715;SDS011;54508;43.238;25.306;2023-04-24T08:42:39;15.85;;;5.72;;
67715;SDS011;54508;43.238;25.306;2023-04-24T08:45:08;9.82;;;5.22;;
67715;SDS011;54508;43.238;25.306;2023-04-24T08:47:34;11.43;;;5.68;;
67715;SDS011;54508;43.238;25.306;2023-04-24T08:50:00;11.05;;;5.28;;
67715;SDS011;54508;43.238;25.306;2023-04-24T08:52:28;8.07;;;5.40;;
67715;SDS011;54508;43.238;25.306;2023-04-24T08:54:54;15.20;;;5.43;;
67715;SDS011;54508;43.238;25.306;2023-04-24T08:57:20;6.28;;;5.10;;
67715;SDS011;54508;43.238;25.306;2023-04-24T08:59:45;6.43;;;5.67;;
67715;SDS011;54508;43.238;25.306;2023-04-24T09:02:11;7.70;;;5.30;;
67715;SDS011;54508;43.238;25.306;2023-04-24T09:04:37;11.90;;;6.88;;
67715;SDS011;54508;43.238;25.306;2023-04-24T09:07:03;12.32;;;7.22;;
67715;SDS011;54508;43.238;25.306;2023-04-24T09:09:30;9.30;;;6.75;;
67715;SDS011;54508;43.238;25.306;2023-04-24T09:11:56;10.63;;;7.75;;
67715;SDS011;54508;43.238;25.306;2023-04-24T09:14:23;9.88;;;7.20;;
67715;SDS011;54508;43.238;25.306;2023-04-24T09:16:49;9.37;;;8.03;;
67715;SDS011;54508;43.238;25.306;2023-04-24T09:19:15;9.05;;;7.72;;
67715;SDS011;54508;43.238;25.306;2023-04-24T09:21:40;9.23;;;7.27;;
67715;SDS011;54508;43.238;25.306;2023-04-24T09:24:14;8.57;;;5.82;;
67715;SDS011;54508;43.238;25.306;2023-04-24T09:26:47;10.38;;;6.07;;
67715;SDS011;54508;43.238;25.306;2023-04-24T09:29:14;7.30;;;5.60;;
67715;SDS011;54508;43.238;25.306;2023-04-24T09:35:09;8.02;;;5.70;;
67715;SDS011;54508;43.238;25.306;2023-04-24T09:37:41;7.47;;;4.70;;
67715;SDS011;54508;43.238;25.306;2023-04-24T09:40:20;10.52;;;4.45;;
67715;SDS011;54508;43.238;25.306;2023-04-24T09:42:54;8.23;;;4.53;;
67715;SDS011;54508;43.238;25.306;2023-04-24T09:45:21;5.93;;;4.67;;
67715;SDS011;54508;43.238;25.306;2023-04-24T09:47:52;7.43;;;5.00;;
67715;SDS011;54508;43.238;25.306;2023-04-24T09:50:20;9.98;;;4.85;;
67715;SDS011;54508;43.238;25.306;2023-04-24T09:52:47;8.50;;;4.60;;
67715;SDS011;54508;43.238;25.306;2023-04-24T09:55:21;10.45;;;5.25;;
67715;SDS011;54508;43.238;25.306;2023-04-24T09:57:50;7.43;;;4.87;;
67715;SDS011;54508;43.238;25.306;2023-04-24T10:00:27;9.77;;;4.32;;
67715;SDS011;54508;43.238;25.306;2023-04-24T10:02:54;8.95;;;4.95;;
67715;SDS011;54508;43.238;25.306;2023-04-24T10:05:30;8.75;;;4.47;;
67715;SDS011;54508;43.238;25.306;2023-04-24T10:08:02;9.13;;;4.68;;
67715;SDS011;54508;43.238;25.306;2023-04-24T10:10:30;10.53;;;4.57;;
67715;SDS011;54508;43.238;25.306;2023-04-24T10:12:56;7.90;;;4.88;;
67715;SDS011;54508;43.238;25.306;2023-04-24T10:15:22;7.22;;;4.75;;
67715;SDS011;54508;43.238;25.306;2023-04-24T10:17:48;6.77;;;4.83;;
67715;SDS011;54508;43.238;25.306;2023-04-24T10:20:21;7.40;;;4.78;;
67715;SDS011;54508;43.238;25.306;2023-04-24T10:22:48;6.35;;;5.07;;
67715;SDS011;54508;43.238;25.306;2023-04-24T10:25:19;7.57;;;4.53;;
67715;SDS011;54508;43.238;25.306;2023-04-24T10:27:47;8.05;;;5.38;;
67715;SDS011;54508;43.238;25.306;2023-04-24T10:30:13;8.23;;;4.68;;
67715;SDS011;54508;43.238;25.306;2023-04-24T10:32:39;6.95;;;4.25;;
67715;SDS011;54508;43.238;25.306;2023-04-24T10:35:08;7.43;;;4.80;;
67715;SDS011;54508;43.238;25.306;2023-04-24T10:37:39;6.28;;;4.72;;
67715;SDS011;54508;43.238;25.306;2023-04-24T10:40:07;6.60;;;5.30;;
67715;SDS011;54508;43.238;25.306;2023-04-24T10:42:35;6.13;;;4.82;;
67715;SDS011;54508;43.238;25.306;2023-04-24T10:45:07;13.55;;;5.50;;
67715;SDS011;54508;43.238;25.306;2023-04-24T10:47:42;8.90;;;4.88;;
67715;SDS011;54508;43.238;25.306;2023-04-24T10:50:44;10.00;;;5.13;;
67715;SDS011;54508;43.238;25.306;2023-04-24T10:53:15;5.95;;;5.25;;
67715;SDS011;54508;43.238;25.306;2023-04-24T10:55:50;8.00;;;4.80;;
67715;SDS011;54508;43.238;25.306;2023-04-24T10:58:18;6.53;;;5.20;;
67715;SDS011;54508;43.238;25.306;2023-04-24T11:00:55;8.18;;;4.93;;
67715;SDS011;54508;43.238;25.306;2023-04-24T11:03:28;7.43;;;5.20;;
67715;SDS011;54508;43.238;25.306;2023-04-24T11:08:23;10.10;;;5.05;;
67715;SDS011;54508;43.238;25.306;2023-04-24T11:11:00;8.18;;;5.05;;
67715;SDS011;54508;43.238;25.306;2023-04-24T11:16:21;6.30;;;5.10;;
67715;SDS011;54508;43.238;25.306;2023-04-24T11:19:05;6.65;;;4.70;;
67715;SDS011;54508;43.238;25.306;2023-04-24T11:24:26;9.55;;;5.68;;
67715;SDS011;54508;43.238;25.306;2023-04-24T11:29:44;9.57;;;5.20;;
67715;SDS011;54508;43.238;25.306;2023-04-24T11:34:52;10.63;;;5.45;;
67715;SDS011;54508;43.238;25.306;2023-04-24T11:37:23;7.43;;;5.47;;
67715;SDS011;54508;43.238;25.306;2023-04-24T11:39:53;10.23;;;4.88;;
67715;SDS011;54508;43.238;25.306;2023-04-24T11:42:20;7.60;;;5.07;;
67715;SDS011;54508;43.238;25.306;2023-04-24T11:44:47;9.80;;;6.03;;
67715;SDS011;54508;43.238;25.306;2023-04-24T11:47:13;12.00;;;5.70;;
67715;SDS011;54508;43.238;25.306;2023-04-24T11:49:41;8.75;;;5.25;;
67715;SDS011;54508;43.238;25.306;2023-04-24T11:52:08;6.55;;;5.22;;
67715;SDS011;54508;43.238;25.306;2023-04-24T11:54:33;10.07;;;5.13;;
67715;SDS011;54508;43.238;25.306;2023-04-24T11:56:59;7.30;;;5.57;;
67715;SDS011;54508;43.238;25.306;2023-04-24T11:59:24;9.03;;;6.77;;
67715;SDS011;54508;43.238;25.306;2023-04-24T12:01:50;13.63;;;7.60;;
67715;SDS011;54508;43.238;25.306;2023-04-24T12:04:16;11.48;;;7.35;;
67715;SDS011;54508;43.238;25.306;2023-04-24T12:07:01;12.95;;;7.68;;
67715;SDS011;54508;43.238;25.306;2023-04-24T12:09:27;14.90;;;6.87;;
67715;SDS011;54508;43.238;25.306;2023-04-24T12:11:56;8.25;;;5.97;;
67715;SDS011;54508;43.238;25.306;2023-04-24T12:14:22;12.55;;;6.80;;
67715;SDS011;54508;43.238;25.306;2023-04-24T12:16:48;12.10;;;6.50;;
67715;SDS011;54508;43.238;25.306;2023-04-24T12:19:18;21.20;;;5.90;;
67715;SDS011;54508;43.238;25.306;2023-04-24T12:21:58;14.25;;;5.68;;
67715;SDS011;54508;43.238;25.306;2023-04-24T12:24:28;20.05;;;7.15;;
67715;SDS011;54508;43.238;25.306;2023-04-24T12:26:53;21.47;;;9.73;;
67715;SDS011;54508;43.238;25.306;2023-04-24T12:29:20;14.43;;;10.38;;
67715;SDS011;54508;43.238;25.306;2023-04-24T12:31:46;19.35;;;8.25;;
67715;SDS011;54508;43.238;25.306;2023-04-24T12:34:18;9.07;;;7.10;;
67715;SDS011;54508;43.238;25.306;2023-04-24T12:36:45;12.40;;;6.75;;
67715;SDS011;54508;43.238;25.306;2023-04-24T12:39:15;10.63;;;5.35;;
67715;SDS011;54508;43.238;25.306;2023-04-24T12:41:50;7.72;;;5.10;;
67715;SDS011;54508;43.238;25.306;2023-04-24T12:44:16;8.95;;;5.28;;
67715;SDS011;54508;43.238;25.306;2023-04-24T12:46:43;5.97;;;4.90;;
67715;SDS011;54508;43.238;25.306;2023-04-24T12:49:09;5.83;;;4.63;;
67715;SDS011;54508;43.238;25.306;2023-04-24T12:51:35;8.65;;;4.90;;
67715;SDS011;54508;43.238;25.306;2023-04-24T12:54:00;5.87;;;4.80;;
67715;SDS011;54508;43.238;25.306;2023-04-24T12:56:26;10.63;;;5.18;;
67715;SDS011;54508;43.238;25.306;2023-04-24T12:58:51;11.77;;;5.20;;
67715;SDS011;54508;43.238;25.306;2023-04-24T13:01:17;8.87;;;5.13;;
67715;SDS011;54508;43.238;25.306;2023-04-24T13:03:42;11.23;;;6.47;;
67715;SDS011;54508;43.238;25.306;2023-04-24T13:06:08;10.80;;;7.07;;
67715;SDS011;54508;43.238;25.306;2023-04-24T13:08:33;13.03;;;6.83;;
67715;SDS011;54508;43.238;25.306;2023-04-24T13:10:59;9.10;;;6.18;;
67715;SDS011;54508;43.238;25.306;2023-04-24T13:13:24;8.43;;;6.10;;
67715;SDS011;54508;43.238;25.306;2023-04-24T13:15:50;11.27;;;6.03;;
67715;SDS011;54508;43.238;25.306;2023-04-24T13:18:15;8.73;;;7.13;;
67715;SDS011;54508;43.238;25.306;2023-04-24T13:20:41;14.75;;;11.20;;
67715;SDS011;54508;43.238;25.306;2023-04-24T13:23:06;22.67;;;13.87;;
67715;SDS011;54508;43.238;25.306;2023-04-24T13:25:34;19.63;;;11.50;;
67715;SDS011;54508;43.238;25.306;2023-04-24T13:28:00;15.80;;;10.30;;
67715;SDS011;54508;43.238;25.306;2023-04-24T13:30:26;14.33;;;7.80;;
67715;SDS011;54508;43.238;25.306;2023-04-24T13:32:51;10.13;;;6.85;;
67715;SDS011;54508;43.238;25.306;2023-04-24T13:35:17;10.20;;;6.20;;
67715;SDS011;54508;43.238;25.306;2023-04-24T13:37:42;9.17;;;5.33;;
67715;SDS011;54508;43.238;25.306;2023-04-24T13:40:08;7.03;;;5.13;;
67715;SDS011;54508;43.238;25.306;2023-04-24T13:42:34;5.80;;;5.13;;
67715;SDS011;54508;43.238;25.306;2023-04-24T13:44:59;8.68;;;5.18;;
67715;SDS011;54508;43.238;25.306;2023-04-24T13:47:25;8.10;;;5.40;;
67715;SDS011;54508;43.238;25.306;2023-04-24T13:49:51;11.30;;;5.20;;
67715;SDS011;54508;43.238;25.306;2023-04-24T13:52:16;15.60;;;5.55;;
67715;SDS011;54508;43.238;25.306;2023-04-24T13:54:42;10.77;;;5.27;;
67715;SDS011;54508;43.238;25.306;2023-04-24T13:57:07;9.97;;;5.17;;
67715;SDS011;54508;43.238;25.306;2023-04-24T13:59:33;7.97;;;4.72;;
67715;SDS011;54508;43.238;25.306;2023-04-24T14:02:02;11.40;;;5.70;;
67715;SDS011;54508;43.238;25.306;2023-04-24T14:04:27;14.60;;;5.43;;
67715;SDS011;54508;43.238;25.306;2023-04-24T14:06:52;12.80;;;5.47;;
67715;SDS011;54508;43.238;25.306;2023-04-24T14:09:18;13.23;;;5.23;;
67715;SDS011;54508;43.238;25.306;2023-04-24T14:11:43;15.80;;;5.57;;
67715;SDS011;54508;43.238;25.306;2023-04-24T14:14:09;13.45;;;5.00;;
67715;SDS011;54508;43.238;25.306;2023-04-24T14:16:34;16.10;;;4.78;;
67715;SDS011;54508;43.238;25.306;2023-04-24T14:19:00;10.67;;;5.00;;
67715;SDS011;54508;43.238;25.306;2023-04-24T14:21:25;8.47;;;5.00;;
67715;SDS011;54508;43.238;25.306;2023-04-24T14:23:51;9.30;;;4.72;;
67715;SDS011;54508;43.238;25.306;2023-04-24T14:26:16;11.17;;;4.93;;
67715;SDS011;54508;43.238;25.306;2023-04-24T14:28:42;14.43;;;5.00;;
67715;SDS011;54508;43.238;25.306;2023-04-24T14:31:07;15.57;;;4.88;;
67715;SDS011;54508;43.238;25.306;2023-04-24T14:33:34;12.90;;;4.82;;
67715;SDS011;54508;43.238;25.306;2023-04-24T14:35:59;16.92;;;5.18;;
67715;SDS011;54508;43.238;25.306;2023-04-24T14:38:27;14.48;;;5.28;;
67715;SDS011;54508;43.238;25.306;2023-04-24T14:40:52;11.43;;;4.83;;
67715;SDS011;54508;43.238;25.306;2023-04-24T14:43:18;12.20;;;4.80;;